Gunnedah, Australia
Current Conditions -  °F | °C
As of 12:30 AM on Monday 22 Dec 2014 (Local Time) from YSTW Reporting Station
Clear Clear  
Wind Chill: 73°   Ceiling: Unl
Heat Index: 73°   Visibility: 6mi
Dew Point: 57°   Wind: 6mph
Humidity: 57%   Direction: 140°SE
Pressure: 30"   Gusts: NA
Location:  30.98°S, 150.26°E
Report Text: YSTW 211330Z AUTO 14005KT 080V160 9999 // NCD 23/14 Q1016
Loading
Personal Weather Stations






























Interactive Weather Map New forecast layout! Learn more

10-Day Weather Forecast

Advertisements
Track Severe Weather on mobile